Time;durP1;ratioP1;P1;durP2;ratioP2;P2;SDS_P1;SDS_P2;PMS_P1;PMS_P2;Temp;Humidity;BMP_temperature;BMP_pressure;BME280_temperature;BME280_humidity;BME280_pressure;Samples;Min_cycle;Max_cycle;Signal;HPM_P1;HPM_P2
2023/03/06 00:00:16;;;;;;;9.90;7.60;;;;;;;-0.75;100.00;96200.28;5074564;28;20208;-71
2023/03/06 00:02:44;;;;;;;10.47;7.83;;;;;;;-0.74;100.00;96198.50;5071502;28;20794;-70
2023/03/06 00:05:12;;;;;;;9.10;8.07;;;;;;;-0.82;100.00;96193.97;5039780;28;20226;-71
2023/03/06 00:07:39;;;;;;;9.20;7.73;;;;;;;-0.92;100.00;96191.38;5064137;28;20203;-70
2023/03/06 00:10:08;;;;;;;9.87;8.50;;;;;;;-0.88;100.00;96191.91;5078379;28;20206;-71
2023/03/06 00:12:37;;;;;;;9.00;7.70;;;;;;;-0.84;100.00;96195.09;5051341;28;20203;-71
2023/03/06 00:15:06;;;;;;;9.27;8.27;;;;;;;-0.88;100.00;96177.16;5047443;28;20233;-70
2023/03/06 00:17:33;;;;;;;10.83;8.07;;;;;;;-0.90;100.00;96180.84;5071763;28;20221;-70
2023/03/06 00:20:01;;;;;;;10.17;7.83;;;;;;;-0.92;100.00;96186.19;5032245;28;20210;-70
2023/03/06 00:22:29;;;;;;;11.70;8.20;;;;;;;-0.92;100.00;96173.19;5066124;28;20202;-69
2023/03/06 00:24:56;;;;;;;10.97;8.60;;;;;;;-0.98;100.00;96165.91;5071662;28;21518;-70
2023/03/06 00:27:25;;;;;;;10.70;7.80;;;;;;;-0.99;100.00;96168.66;5052965;28;20875;-70
2023/03/06 00:29:56;;;;;;;11.37;7.87;;;;;;;-0.98;100.00;96167.69;5069731;28;20198;-71
2023/03/06 00:32:24;;;;;;;8.53;7.43;;;;;;;-0.91;100.00;96172.22;5073297;28;20621;-69
2023/03/06 00:34:52;;;;;;;9.00;7.77;;;;;;;-0.90;100.00;96171.28;5031820;28;20282;-70
2023/03/06 00:37:20;;;;;;;9.13;7.93;;;;;;;-0.92;100.00;96169.75;5067292;28;20229;-71
2023/03/06 00:39:48;;;;;;;11.33;7.37;;;;;;;-0.90;100.00;96166.06;5071457;28;20202;-70
2023/03/06 00:42:17;;;;;;;9.53;7.23;;;;;;;-0.83;100.00;96155.91;5071024;28;20202;-71
2023/03/06 00:44:45;;;;;;;10.27;7.53;;;;;;;-0.94;100.00;96149.09;5067848;28;20234;-69
2023/03/06 00:47:16;;;;;;;8.50;7.23;;;;;;;-0.97;100.00;96154.53;5076217;28;20195;-70
2023/03/06 00:49:44;;;;;;;10.30;8.23;;;;;;;-1.02;100.00;96154.97;5071648;28;20198;-70
2023/03/06 00:52:11;;;;;;;10.13;8.83;;;;;;;-0.98;100.00;96150.31;5028689;28;20215;-71
2023/03/06 00:54:39;;;;;;;9.90;8.07;;;;;;;-1.06;100.00;96143.22;5070352;28;20229;-70
2023/03/06 00:57:07;;;;;;;8.40;7.43;;;;;;;-1.10;100.00;96148.81;5072767;28;20309;-70
2023/03/06 00:59:35;;;;;;;11.00;8.40;;;;;;;-1.08;100.00;96142.53;5058404;28;20210;-69
2023/03/06 01:02:02;;;;;;;10.57;8.40;;;;;;;-1.05;100.00;96141.41;5069338;28;21644;-72
2023/03/06 01:04:32;;;;;;;8.80;7.90;;;;;;;-1.07;100.00;96151.97;5054725;28;20212;-72
2023/03/06 01:06:59;;;;;;;9.53;8.00;;;;;;;-1.01;100.00;96134.97;5029346;28;20210;-69
2023/03/06 01:09:28;;;;;;;10.23;9.23;;;;;;;-1.01;100.00;96137.56;5069846;28;20205;-71
2023/03/06 01:11:55;;;;;;;9.40;7.93;;;;;;;-1.05;100.00;96133.63;5072964;28;20202;-70
2023/03/06 01:14:23;;;;;;;10.90;8.37;;;;;;;-1.09;100.00;96122.69;5071709;28;20727;-70
2023/03/06 01:16:50;;;;;;;10.63;8.47;;;;;;;-1.07;100.00;96120.78;5065274;28;20225;-70
2023/03/06 01:19:18;;;;;;;10.87;7.37;;;;;;;-1.15;100.00;96120.59;5058568;28;20198;-70
2023/03/06 01:21:47;;;;;;;9.97;7.47;;;;;;;-1.17;100.00;96119.94;5026972;28;20210;-71
2023/03/06 01:24:15;;;;;;;13.30;8.33;;;;;;;-1.19;100.00;96114.88;5070736;28;20813;-71
2023/03/06 01:26:42;;;;;;;11.03;8.33;;;;;;;-1.26;100.00;96119.00;5071976;28;20804;-71
2023/03/06 01:29:10;;;;;;;12.73;9.23;;;;;;;-1.15;100.00;96107.63;5072346;28;20735;-71
2023/03/06 01:31:37;;;;;;;9.90;7.93;;;;;;;-1.22;100.00;96109.97;5068207;28;20312;-71
2023/03/06 01:34:05;;;;;;;10.33;8.30;;;;;;;-1.29;100.00;96102.84;5071561;28;20203;-71
2023/03/06 01:36:33;;;;;;;13.17;9.17;;;;;;;-1.31;100.00;96100.38;5006548;28;20230;-69
2023/03/06 01:39:02;;;;;;;11.63;8.00;;;;;;;-1.31;100.00;96108.19;5071166;28;20690;-69
2023/03/06 01:41:31;;;;;;;11.77;8.97;;;;;;;-1.28;100.00;96099.28;5069526;28;20199;-70
2023/03/06 01:43:59;;;;;;;13.30;9.00;;;;;;;-1.35;100.00;96099.81;5070250;28;20609;-69
2023/03/06 01:46:34;;;;;;;13.47;9.77;;;;;;;-1.35;100.00;96099.00;5069367;28;20249;-70
2023/03/06 01:49:05;;;;;;;12.20;8.73;;;;;;;-1.35;100.00;96102.44;5069233;28;20215;-70
2023/03/06 01:51:36;;;;;;;12.30;9.03;;;;;;;-1.34;100.00;96098.03;5006526;28;22038;-70
2023/03/06 01:54:08;;;;;;;12.23;8.97;;;;;;;-1.31;100.00;96097.78;5074716;28;20198;-70
2023/03/06 01:56:36;;;;;;;12.70;9.47;;;;;;;-1.23;100.00;96092.72;5068675;28;20223;-69
2023/03/06 01:59:04;;;;;;;13.03;9.63;;;;;;;-1.27;100.00;96090.53;5072620;28;20780;-69
2023/03/06 02:01:32;;;;;;;12.63;9.13;;;;;;;-1.28;100.00;96083.69;5062408;28;20201;-69
2023/03/06 02:04:01;;;;;;;10.07;8.97;;;;;;;-1.35;100.00;96080.81;5065039;28;20199;-70
2023/03/06 02:06:28;;;;;;;10.37;8.50;;;;;;;-1.38;100.00;96066.31;5047751;28;20237;-70
2023/03/06 02:08:56;;;;;;;9.73;8.70;;;;;;;-1.33;100.00;96071.91;5027653;28;20215;-70
2023/03/06 02:11:25;;;;;;;13.07;9.20;;;;;;;-1.34;100.00;96069.44;5074192;28;20198;-70
2023/03/06 02:13:54;;;;;;;12.17;8.93;;;;;;;-1.40;100.00;96073.44;5061573;28;20215;-70
2023/03/06 02:16:25;;;;;;;9.50;8.43;;;;;;;-1.42;100.00;96071.91;5071923;28;20240;-69
2023/03/06 02:18:53;;;;;;;9.83;8.70;;;;;;;-1.37;100.00;96065.34;5056074;28;20221;-70
2023/03/06 02:21:23;;;;;;;9.63;8.57;;;;;;;-1.44;100.00;96064.28;5049076;28;20206;-69
2023/03/06 02:23:57;;;;;;;10.87;8.83;;;;;;;-1.44;100.00;96060.84;5020569;28;20213;-71
2023/03/06 02:26:27;;;;;;;13.87;9.90;;;;;;;-1.51;100.00;96053.59;5069489;28;20225;-70
2023/03/06 02:28:56;;;;;;;12.00;9.47;;;;;;;-1.48;100.00;96053.31;5041763;28;20543;-69
2023/03/06 02:31:26;;;;;;;11.33;9.80;;;;;;;-1.51;100.00;96055.38;5067258;28;20194;-70
2023/03/06 02:34:08;;;;;;;11.23;8.70;;;;;;;-1.51;100.00;96052.78;5070870;28;20213;-70
2023/03/06 02:36:38;;;;;;;11.47;9.60;;;;;;;-1.47;100.00;96049.75;5051719;28;20931;-70
2023/03/06 02:39:07;;;;;;;10.33;9.23;;;;;;;-1.48;100.00;96052.50;5027344;28;20222;-72
2023/03/06 02:41:36;;;;;;;11.57;9.10;;;;;;;-1.47;100.00;96043.75;5069108;28;20194;-70
2023/03/06 02:44:03;;;;;;;11.47;9.70;;;;;;;-1.44;100.00;96043.47;5070383;28;20194;-70
2023/03/06 02:46:31;;;;;;;11.97;9.30;;;;;;;-1.41;100.00;96042.38;5074270;28;20221;-70
2023/03/06 02:48:59;;;;;;;14.27;9.40;;;;;;;-1.47;100.00;96033.38;5076269;28;20683;-70
2023/03/06 02:51:27;;;;;;;10.73;9.33;;;;;;;-1.45;100.00;96028.84;5068787;28;20209;-71
2023/03/06 02:53:55;;;;;;;14.80;10.13;;;;;;;-1.43;100.00;96029.53;5014441;28;20206;-69
2023/03/06 02:56:22;;;;;;;10.67;9.47;;;;;;;-1.44;100.00;96033.09;5065656;28;20225;-70
2023/03/06 02:58:51;;;;;;;12.50;10.10;;;;;;;-1.48;100.00;96036.94;5074626;28;20217;-71
2023/03/06 03:01:19;;;;;;;11.77;9.20;;;;;;;-1.40;100.00;96034.44;5073090;28;20860;-71
2023/03/06 03:03:47;;;;;;;13.03;11.03;;;;;;;-1.47;100.00;96023.78;5069548;28;20693;-71
2023/03/06 03:06:15;;;;;;;13.77;10.33;;;;;;;-1.47;100.00;96026.38;5071082;28;20225;-71
2023/03/06 03:08:42;;;;;;;11.33;9.50;;;;;;;-1.48;100.00;96026.53;5046958;28;20271;-71
2023/03/06 03:11:11;;;;;;;13.43;9.17;;;;;;;-1.47;100.00;96021.19;5036973;28;20721;-71
2023/03/06 03:13:38;;;;;;;10.90;9.40;;;;;;;-1.49;100.00;96025.69;5073599;28;20198;-70
2023/03/06 03:16:12;;;;;;;13.30;10.47;;;;;;;-1.51;100.00;96021.63;5075796;28;20231;-70
2023/03/06 03:18:43;;;;;;;12.00;9.77;;;;;;;-1.54;100.00;96020.09;5074173;28;20317;-70
2023/03/06 03:21:12;;;;;;;11.70;9.80;;;;;;;-1.58;100.00;96008.34;5071678;28;20593;-70
2023/03/06 03:23:40;;;;;;;13.70;9.50;;;;;;;-1.57;100.00;96012.56;5053462;28;20206;-70
2023/03/06 03:26:09;;;;;;;12.23;10.13;;;;;;;-1.63;100.00;96019.13;5027123;28;20230;-70
2023/03/06 03:28:36;;;;;;;12.63;9.57;;;;;;;-1.61;100.00;96006.81;5075078;28;20203;-69
2023/03/06 03:31:05;;;;;;;12.63;10.43;;;;;;;-1.62;100.00;96002.59;5071942;28;20202;-70
2023/03/06 03:33:34;;;;;;;13.50;9.80;;;;;;;-1.62;100.00;96018.16;5078021;28;20198;-69
2023/03/06 03:36:04;;;;;;;11.07;10.00;;;;;;;-1.65;100.00;96009.84;5076848;28;20217;-69
2023/03/06 03:38:31;;;;;;;14.43;9.90;;;;;;;-1.66;100.00;96010.81;5045387;28;20875;-69
2023/03/06 03:41:00;;;;;;;17.27;10.07;;;;;;;-1.63;100.00;96005.34;5072890;28;20217;-70
2023/03/06 03:43:28;;;;;;;12.93;10.40;;;;;;;-1.69;100.00;96001.50;5036442;28;20206;-71
2023/03/06 03:45:55;;;;;;;13.73;11.00;;;;;;;-1.62;100.00;95994.00;5074662;28;20731;-70
2023/03/06 03:48:23;;;;;;;14.40;10.33;;;;;;;-1.64;100.00;95991.50;5068401;28;20202;-70
2023/03/06 03:50:52;;;;;;;14.63;10.57;;;;;;;-1.64;100.00;95977.72;5073996;28;20202;-69
2023/03/06 03:53:20;;;;;;;13.30;10.90;;;;;;;-1.60;100.00;95976.47;5054361;28;20198;-70
2023/03/06 03:55:48;;;;;;;14.17;10.50;;;;;;;-1.65;100.00;95978.69;5071300;28;20229;-69
2023/03/06 03:58:16;;;;;;;14.73;11.23;;;;;;;-1.66;100.00;95977.03;5033259;28;20226;-70
2023/03/06 04:00:43;;;;;;;14.70;10.83;;;;;;;-1.66;100.00;95971.84;5072633;28;20195;-69
2023/03/06 04:03:11;;;;;;;14.27;10.20;;;;;;;-1.62;100.00;95970.63;5076682;28;20776;-70
2023/03/06 04:05:38;;;;;;;15.90;12.23;;;;;;;-1.61;100.00;95972.25;5071559;28;20221;-70
2023/03/06 04:08:07;;;;;;;12.97;10.93;;;;;;;-1.60;100.00;95974.69;5073208;28;20202;-70
2023/03/06 04:10:35;;;;;;;15.73;11.93;;;;;;;-1.54;100.00;95962.09;5056485;28;20198;-69
2023/03/06 04:13:03;;;;;;;18.87;12.83;;;;;;;-1.53;100.00;95964.59;5007201;28;23181;-70
2023/03/06 04:15:31;;;;;;;19.90;11.43;;;;;;;-1.51;100.00;95959.25;5070805;28;20222;-71
2023/03/06 04:17:58;;;;;;;17.93;12.30;;;;;;;-1.57;100.00;95945.03;5050318;28;20237;-70
2023/03/06 04:20:27;;;;;;;15.40;12.10;;;;;;;-1.50;100.00;95963.50;5071836;28;20628;-70
2023/03/06 04:22:54;;;;;;;15.93;12.93;;;;;;;-1.52;100.00;95967.97;5063322;28;20198;-72
2023/03/06 04:25:23;;;;;;;16.67;12.43;;;;;;;-1.52;100.00;95961.03;5046553;28;20238;-70
2023/03/06 04:27:51;;;;;;;14.70;12.10;;;;;;;-1.39;100.00;95962.50;5066152;28;20487;-70
2023/03/06 04:30:18;;;;;;;16.57;12.47;;;;;;;-1.41;100.00;95954.03;5030167;28;20206;-71
2023/03/06 04:32:46;;;;;;;16.10;12.37;;;;;;;-1.40;100.00;95955.66;5066936;28;20206;-72
2023/03/06 04:35:13;;;;;;;14.50;11.27;;;;;;;-1.42;100.00;95952.38;5072315;28;20538;-70
2023/03/06 04:37:41;;;;;;;15.13;12.20;;;;;;;-1.41;100.00;95954.88;5066998;28;20199;-71
2023/03/06 04:40:12;;;;;;;18.13;13.73;;;;;;;-1.41;100.00;95948.81;5072824;28;20308;-71
2023/03/06 04:42:41;;;;;;;16.43;11.73;;;;;;;-1.48;100.00;95939.00;5073789;28;20220;-70
2023/03/06 04:45:09;;;;;;;15.03;13.03;;;;;;;-1.48;100.00;95933.81;5017821;28;21471;-71
2023/03/06 04:47:37;;;;;;;17.33;12.67;;;;;;;-1.54;100.00;95936.13;5069669;28;20202;-70
2023/03/06 04:50:05;;;;;;;18.50;12.50;;;;;;;-1.54;100.00;95926.56;5062694;28;20225;-70
2023/03/06 04:52:32;;;;;;;17.03;12.93;;;;;;;-1.57;100.00;95926.84;5070065;28;20203;-69
2023/03/06 04:55:03;;;;;;;20.07;13.67;;;;;;;-1.56;100.00;95923.28;5066516;28;20362;-70
2023/03/06 04:57:30;;;;;;;16.67;13.07;;;;;;;-1.56;100.00;95923.28;5075061;28;20581;-70
2023/03/06 04:59:59;;;;;;;15.13;12.13;;;;;;;-1.56;100.00;95919.88;5067230;28;20233;-72
2023/03/06 05:02:27;;;;;;;20.37;14.00;;;;;;;-1.56;100.00;95915.50;5019515;28;20211;-71
2023/03/06 05:04:54;;;;;;;17.67;12.93;;;;;;;-1.56;100.00;95915.50;5069193;28;20218;-70
2023/03/06 05:07:22;;;;;;;18.07;13.60;;;;;;;-1.56;100.00;95915.50;5070059;28;20211;-71
2023/03/06 05:09:49;;;;;;;18.67;13.53;;;;;;;-1.53;100.00;95912.63;5068804;28;20199;-71
2023/03/06 05:12:17;;;;;;;17.60;15.23;;;;;;;-1.52;100.00;95922.06;5072312;28;20211;-70
2023/03/06 05:14:45;;;;;;;19.10;13.87;;;;;;;-1.51;100.00;95910.69;5071012;28;20230;-71
2023/03/06 05:17:15;;;;;;;19.13;15.20;;;;;;;-1.51;100.00;95912.50;5030434;28;20600;-71
2023/03/06 05:19:43;;;;;;;21.17;15.10;;;;;;;-1.56;100.00;95906.88;5070521;28;20222;-72
2023/03/06 05:22:10;;;;;;;19.73;13.83;;;;;;;-1.56;100.00;95905.09;5067781;28;20206;-69
2023/03/06 05:24:38;;;;;;;20.10;14.93;;;;;;;-1.50;100.00;95912.34;5072899;28;20202;-72
2023/03/06 05:27:06;;;;;;;18.50;13.97;;;;;;;-1.47;100.00;95908.66;5068778;28;20292;-71
2023/03/06 05:29:33;;;;;;;17.33;13.23;;;;;;;-1.46;100.00;95899.91;5071347;28;20199;-71
2023/03/06 05:32:01;;;;;;;18.90;14.30;;;;;;;-1.50;100.00;95907.16;5066051;28;20225;-72
2023/03/06 05:34:30;;;;;;;20.20;14.57;;;;;;;-1.55;100.00;95906.75;5047214;28;20299;-71
2023/03/06 05:36:57;;;;;;;17.03;13.57;;;;;;;-1.58;100.00;95896.63;5064323;28;20210;-71
2023/03/06 05:39:25;;;;;;;16.70;14.20;;;;;;;-1.55;100.00;95888.56;5074079;28;20218;-72
2023/03/06 05:41:53;;;;;;;17.83;14.17;;;;;;;-1.57;100.00;95893.09;5074761;28;20206;-71
2023/03/06 05:44:22;;;;;;;17.53;14.43;;;;;;;-1.62;100.00;95898.69;5071593;28;20240;-71
2023/03/06 05:46:50;;;;;;;15.97;12.83;;;;;;;-1.61;100.00;95894.31;5072210;28;20202;-71
2023/03/06 05:49:18;;;;;;;19.87;14.03;;;;;;;-1.62;100.00;95901.28;5033945;28;20194;-72
2023/03/06 05:51:46;;;;;;;19.20;14.53;;;;;;;-1.62;100.00;95909.06;5069890;28;20202;-74
2023/03/06 05:54:14;;;;;;;21.53;14.90;;;;;;;-1.64;100.00;95899.81;5068024;28;20229;-72
2023/03/06 05:56:42;;;;;;;19.73;14.73;;;;;;;-1.60;100.00;95907.16;5072145;28;20221;-72
2023/03/06 05:59:09;;;;;;;21.90;15.57;;;;;;;-1.59;100.00;95905.38;5073054;28;20313;-71
2023/03/06 06:01:37;;;;;;;18.50;14.83;;;;;;;-1.54;100.00;95905.78;5069405;28;20205;-70
2023/03/06 06:04:05;;;;;;;20.30;14.40;;;;;;;-1.49;100.00;95913.97;5033401;28;20202;-71
2023/03/06 06:06:32;;;;;;;18.47;14.43;;;;;;;-1.45;100.00;95911.94;5048768;28;20763;-71
2023/03/06 06:09:01;;;;;;;17.53;14.30;;;;;;;-1.42;100.00;95906.44;5066923;28;20206;-71
2023/03/06 06:11:29;;;;;;;20.80;14.97;;;;;;;-1.43;100.00;95903.97;5071642;28;20611;-70
2023/03/06 06:13:56;;;;;;;22.50;15.67;;;;;;;-1.41;100.00;95900.28;5067580;28;20206;-71
2023/03/06 06:16:24;;;;;;;23.77;14.67;;;;;;;-1.49;100.00;95901.00;5067536;28;20230;-71
2023/03/06 06:18:52;;;;;;;17.40;13.70;;;;;;;-1.36;100.00;95912.84;5048592;28;20209;-72
2023/03/06 06:21:20;;;;;;;18.73;14.53;;;;;;;-1.33;100.00;95913.41;5056277;28;20290;-70
2023/03/06 06:23:48;;;;;;;18.47;15.50;;;;;;;-1.26;100.00;95916.25;5071843;28;20566;-71
2023/03/06 06:26:17;;;;;;;16.33;14.00;;;;;;;-1.26;100.00;95913.66;5068252;28;21052;-71
2023/03/06 06:28:44;;;;;;;18.50;14.50;;;;;;;-1.27;100.00;95912.03;5070437;28;21531;-71
2023/03/06 06:31:12;;;;;;;20.80;15.10;;;;;;;-1.19;100.00;95909.53;5062821;28;20192;-69
2023/03/06 06:33:41;;;;;;;19.80;14.87;;;;;;;-1.22;100.00;95907.22;5074392;28;20807;-71
2023/03/06 06:36:15;;;;;;;20.80;14.77;;;;;;;-1.16;100.00;95905.81;5040074;28;20229;-71
2023/03/06 06:38:43;;;;;;;19.87;13.47;;;;;;;-1.23;100.00;95905.59;5077159;28;20223;-70
2023/03/06 06:41:11;;;;;;;20.33;14.50;;;;;;;-1.12;100.00;95907.19;5043678;28;20301;-73
2023/03/06 06:44:01;;;;;;;22.00;14.13;;;;;;;-1.23;100.00;95895.19;5066934;28;20210;-70
2023/03/06 06:46:28;;;;;;;17.23;13.63;;;;;;;-1.09;100.00;95901.72;5064319;28;20238;-72
2023/03/06 06:49:17;;;;;;;19.60;14.43;;;;;;;-1.06;100.00;95896.22;5033433;28;20612;-71
2023/03/06 06:51:45;;;;;;;19.53;15.00;;;;;;;-0.96;100.00;95905.75;5034719;28;20609;-70
2023/03/06 06:54:13;;;;;;;17.43;14.40;;;;;;;-0.96;100.00;95903.16;5071615;28;20205;-72
2023/03/06 06:56:40;;;;;;;19.00;14.77;;;;;;;-0.86;100.00;95910.91;5071586;28;20248;-72
2023/03/06 06:59:09;;;;;;;21.70;15.13;;;;;;;-0.88;100.00;95904.09;5070687;28;20202;-72
2023/03/06 07:01:44;;;;;;;20.37;14.30;;;;;;;-0.71;100.00;95896.47;5066403;28;20365;-70
2023/03/06 07:04:12;;;;;;;18.07;14.60;;;;;;;-0.82;100.00;95897.47;5068489;28;20393;-72
2023/03/06 07:06:40;;;;;;;19.00;14.90;;;;;;;-0.80;100.00;95897.34;5017988;28;20230;-71
2023/03/06 07:09:08;;;;;;;21.50;14.77;;;;;;;-0.66;100.00;95901.25;5069624;28;20206;-71
2023/03/06 07:11:37;;;;;;;17.00;15.10;;;;;;;-0.66;100.00;95902.03;5074722;28;20195;-72
2023/03/06 07:14:05;;;;;;;18.57;14.23;;;;;;;-0.60;100.00;95900.66;5068493;28;20206;-72
2023/03/06 07:16:34;;;;;;;24.60;16.03;;;;;;;-0.46;100.00;95899.34;5064595;28;20218;-71
2023/03/06 07:19:01;;;;;;;21.60;14.10;;;;;;;-0.50;100.00;95895.41;5072221;28;20202;-73
2023/03/06 07:21:29;;;;;;;19.97;14.57;;;;;;;-0.52;100.00;95897.31;5021201;28;20356;-72
2023/03/06 07:23:57;;;;;;;19.37;15.10;;;;;;;-0.33;100.00;95899.78;5072937;28;20217;-72
2023/03/06 07:26:24;;;;;;;16.97;13.70;;;;;;;-0.35;100.00;95896.50;5069165;28;20589;-72
2023/03/06 07:28:52;;;;;;;20.03;14.83;;;;;;;-0.22;100.00;95900.53;5073051;28;20197;-71
2023/03/06 07:31:21;;;;;;;15.33;13.73;;;;;;;-0.23;100.00;95891.09;5067787;28;20202;-71
2023/03/06 07:33:52;;;;;;;20.33;15.00;;;;;;;-0.29;100.00;95897.72;5073805;28;20217;-70
2023/03/06 07:36:20;;;;;;;18.77;14.13;;;;;;;-0.21;100.00;95889.97;5039529;28;20559;-71
2023/03/06 07:38:48;;;;;;;17.80;13.60;;;;;;;-0.13;100.00;95886.66;5061977;28;20719;-71
2023/03/06 07:41:17;;;;;;;19.87;12.90;;;;;;;0.03;100.00;95904.22;5070585;28;20566;-72
2023/03/06 07:43:48;;;;;;;20.93;14.63;;;;;;;0.04;100.00;95902.41;5075500;28;20786;-71
2023/03/06 07:46:16;;;;;;;20.07;15.37;;;;;;;0.16;100.00;95903.81;5068086;28;20309;-71
2023/03/06 07:48:44;;;;;;;20.13;15.53;;;;;;;0.15;100.00;95904.78;5077466;28;20252;-73
2023/03/06 07:51:15;;;;;;;19.77;15.03;;;;;;;0.09;100.00;95910.59;5058698;28;20224;-72
2023/03/06 07:53:44;;;;;;;17.27;14.03;;;;;;;0.30;100.00;95910.28;5032420;28;20256;-72
2023/03/06 07:56:12;;;;;;;17.50;13.40;;;;;;;0.37;100.00;95911.28;5072914;28;20218;-71
2023/03/06 07:58:41;;;;;;;18.80;13.83;;;;;;;0.36;100.00;95912.25;5074994;28;20221;-71
2023/03/06 08:01:10;;;;;;;16.17;13.33;;;;;;;0.49;100.00;95901.44;5050790;28;20222;-71
2023/03/06 08:03:38;;;;;;;21.17;13.87;;;;;;;0.26;100.00;95904.56;5075121;28;20210;-72
2023/03/06 08:06:08;;;;;;;18.73;14.53;;;;;;;0.51;100.00;95899.50;5068524;28;20253;-71
2023/03/06 08:08:39;;;;;;;17.00;14.10;;;;;;;0.42;100.00;95903.88;5036175;28;20585;-69
2023/03/06 08:11:07;;;;;;;16.47;13.87;;;;;;;0.46;100.00;95903.56;5073720;28;20201;-71
2023/03/06 08:13:36;;;;;;;18.47;13.83;;;;;;;0.57;100.00;95903.31;5076270;28;20215;-71
2023/03/06 08:16:03;;;;;;;20.70;13.70;;;;;;;0.56;100.00;95906.88;5069837;28;20655;-72
2023/03/06 08:18:31;;;;;;;17.10;14.33;;;;;;;0.55;100.00;95902.63;5070542;28;20253;-70
2023/03/06 08:21:03;;;;;;;17.50;14.70;;;;;;;0.61;100.00;95893.41;5070045;28;20502;-71
2023/03/06 08:23:31;;;;;;;19.90;14.23;;;;;;;0.74;100.00;95898.19;5011333;28;21244;-72
2023/03/06 08:26:02;;;;;;;16.57;12.97;;;;;;;0.70;100.00;95897.69;5071861;28;20224;-72
2023/03/06 08:28:30;;;;;;;19.07;13.53;;;;;;;0.86;100.00;95896.97;5076940;28;20206;-71
2023/03/06 08:30:58;;;;;;;17.17;13.67;;;;;;;0.79;100.00;95885.53;5073819;28;20194;-72
2023/03/06 08:33:26;;;;;;;17.40;15.13;;;;;;;0.88;100.00;95897.63;5071017;28;20827;-71
2023/03/06 08:35:54;;;;;;;15.67;13.80;;;;;;;0.95;100.00;95900.44;5077488;28;20225;-72
2023/03/06 08:38:22;;;;;;;18.40;14.50;;;;;;;1.00;100.00;95896.38;5068660;28;20718;-71
2023/03/06 08:40:49;;;;;;;18.70;13.57;;;;;;;1.23;100.00;95902.84;5020405;28;20313;-70
2023/03/06 08:43:18;;;;;;;15.93;13.63;;;;;;;1.38;100.00;95898.66;5072821;28;20194;-71
2023/03/06 08:45:51;;;;;;;18.73;14.30;;;;;;;1.46;100.00;95905.69;5079074;28;20495;-72
2023/03/06 08:48:19;;;;;;;16.53;13.10;;;;;;;1.53;100.00;95903.25;5069352;28;20586;-70
2023/03/06 08:50:46;;;;;;;18.50;13.97;;;;;;;1.61;100.00;95905.91;5071582;28;20199;-72
2023/03/06 08:53:14;;;;;;;18.83;13.60;;;;;;;1.41;100.00;95900.97;5069728;28;20683;-71
2023/03/06 08:55:42;;;;;;;21.13;16.10;;;;;;;1.54;100.00;95907.50;5024640;28;20230;-71
2023/03/06 08:58:10;;;;;;;20.93;14.27;;;;;;;1.68;100.00;95900.88;5072135;28;20194;-71
2023/03/06 09:00:39;;;;;;;18.20;13.43;;;;;;;1.64;97.67;95905.56;5076187;28;20476;-71
2023/03/06 09:03:06;;;;;;;17.10;13.70;;;;;;;1.73;96.21;95901.19;5068843;28;20217;-72
2023/03/06 09:05:34;;;;;;;16.93;13.73;;;;;;;1.82;97.57;95910.69;5074282;28;20225;-72
2023/03/06 09:08:02;;;;;;;19.20;14.43;;;;;;;1.85;92.96;95896.50;5066981;28;20669;-71
2023/03/06 09:10:29;;;;;;;20.13;14.40;;;;;;;1.82;90.97;95899.44;5019893;28;20594;-72
2023/03/06 09:12:57;;;;;;;14.87;12.70;;;;;;;1.78;90.35;95898.91;5074482;28;20202;-71
2023/03/06 09:15:25;;;;;;;16.67;13.77;;;;;;;2.02;91.31;95894.72;5070967;28;20272;-71
2023/03/06 09:17:54;;;;;;;19.27;14.53;;;;;;;2.00;88.73;95910.53;5072573;28;20592;-72
2023/03/06 09:20:22;;;;;;;17.60;13.73;;;;;;;1.97;87.02;95905.63;5074649;28;20260;-72
2023/03/06 09:22:49;;;;;;;19.17;13.73;;;;;;;1.92;86.77;95907.13;5068468;28;20215;-70
2023/03/06 09:25:19;;;;;;;17.63;13.83;;;;;;;2.16;87.71;95899.28;5017104;28;21177;-71
2023/03/06 09:27:47;;;;;;;15.73;12.80;;;;;;;2.34;87.40;95895.72;5076093;28;20734;-71
2023/03/06 09:30:28;;;;;;;18.73;13.83;;;;;;;2.64;85.57;95901.22;5066101;28;20401;-71
2023/03/06 09:32:57;;;;;;;17.37;13.77;;;;;;;2.68;83.97;95891.25;5034409;28;20237;-71
2023/03/06 09:35:25;;;;;;;16.27;13.03;;;;;;;2.75;82.03;95897.44;5072334;28;20219;-72
2023/03/06 09:37:52;;;;;;;13.73;11.87;;;;;;;2.73;80.85;95889.78;5051674;28;20820;-73
2023/03/06 09:40:25;;;;;;;13.67;11.83;;;;;;;3.07;80.21;95898.34;5069966;28;20194;-71
2023/03/06 09:42:53;;;;;;;13.20;11.80;;;;;;;3.10;78.39;95899.84;5029580;28;20225;-70
2023/03/06 09:45:21;;;;;;;14.13;12.17;;;;;;;3.06;78.45;95898.53;5072869;28;20233;-72
2023/03/06 09:47:52;;;;;;;12.87;11.53;;;;;;;3.03;78.15;95897.06;5065493;28;20210;-71
2023/03/06 09:50:28;;;;;;;13.10;11.70;;;;;;;2.84;78.37;95896.47;5071635;28;20281;-72
2023/03/06 09:53:05;;;;;;;12.40;11.17;;;;;;;2.96;78.17;95893.50;5044540;28;20186;-71
2023/03/06 09:55:35;;;;;;;16.33;11.47;;;;;;;3.16;78.22;95892.09;5071486;28;20221;-71
2023/03/06 09:58:06;;;;;;;16.03;12.27;;;;;;;3.30;76.87;95887.16;5036322;28;20217;-71
2023/03/06 10:00:36;;;;;;;14.23;11.90;;;;;;;2.86;77.28;95885.81;5073046;28;20839;-71
2023/03/06 10:03:15;;;;;;;13.87;11.60;;;;;;;3.16;77.07;95881.63;5068798;28;20423;-71
2023/03/06 10:05:47;;;;;;;13.20;11.43;;;;;;;3.51;77.06;95877.88;5070024;28;20241;-71
2023/03/06 10:08:22;;;;;;;11.83;9.53;;;;;;;3.14;75.71;95877.56;5028142;28;20788;-70
2023/03/06 10:10:56;;;;;;;11.47;9.90;;;;;;;3.43;73.95;95879.56;5079573;28;20460;-71
2023/03/06 10:13:27;;;;;;;10.53;9.13;;;;;;;3.63;73.18;95879.16;5032154;28;20213;-71
2023/03/06 10:16:04;;;;;;;11.00;8.83;;;;;;;3.91;72.75;95873.41;5071964;28;20222;-72
2023/03/06 10:18:37;;;;;;;10.20;9.20;;;;;;;3.82;71.24;95866.59;5072056;28;20207;-72
2023/03/06 10:21:20;;;;;;;10.03;8.93;;;;;;;3.67;70.20;95872.56;5065412;28;20211;-72
2023/03/06 10:23:52;;;;;;;11.07;9.23;;;;;;;4.00;70.71;95869.75;5054865;28;20198;-71
2023/03/06 10:26:24;;;;;;;11.33;9.27;;;;;;;4.46;70.31;95863.63;5069477;28;20320;-72
2023/03/06 10:29:00;;;;;;;10.33;8.53;;;;;;;4.34;68.32;95865.84;5021564;28;20229;-71
2023/03/06 10:31:28;;;;;;;8.90;8.10;;;;;;;4.60;69.17;95869.09;5067304;28;20855;-72
2023/03/06 10:34:11;;;;;;;10.50;8.20;;;;;;;4.70;67.09;95863.56;5070055;28;20259;-71
2023/03/06 10:36:40;;;;;;;8.73;7.93;;;;;;;4.28;65.62;95860.53;5069818;28;20229;-73
2023/03/06 10:39:13;;;;;;;9.20;8.37;;;;;;;4.69;66.12;95860.16;5051862;28;20297;-73
2023/03/06 10:41:41;;;;;;;8.50;7.70;;;;;;;4.68;64.99;95857.69;5070912;28;20388;-71
2023/03/06 10:44:21;;;;;;;9.17;8.27;;;;;;;5.24;65.63;95859.84;5048278;28;20199;-72
2023/03/06 10:46:51;;;;;;;8.07;7.30;;;;;;;4.99;62.04;95849.66;5071428;28;20700;-73
2023/03/06 10:49:28;;;;;;;7.57;6.37;;;;;;;4.47;62.28;95856.59;5065956;28;20204;-71
2023/03/06 10:52:00;;;;;;;7.00;6.30;;;;;;;4.35;62.37;95851.75;5069379;28;20198;-71
2023/03/06 10:54:28;;;;;;;7.60;7.00;;;;;;;4.68;62.82;95840.16;5046306;28;20221;-71
2023/03/06 10:56:56;;;;;;;6.47;5.87;;;;;;;4.42;61.61;95851.06;5068123;28;20634;-71
2023/03/06 10:59:27;;;;;;;7.47;6.63;;;;;;;4.33;62.50;95845.88;5027273;28;20210;-71
2023/03/06 11:01:56;;;;;;;7.97;7.27;;;;;;;4.38;62.63;95841.94;5071350;28;20359;-69
2023/03/06 11:04:26;;;;;;;7.47;6.47;;;;;;;4.68;62.96;95849.81;5065095;28;20968;-72
2023/03/06 11:07:17;;;;;;;7.70;7.00;;;;;;;4.74;61.92;95847.28;5073932;28;20211;-70
2023/03/06 11:10:00;;;;;;;8.53;7.80;;;;;;;4.43;62.88;95850.06;5045019;28;20236;-71
2023/03/06 11:12:31;;;;;;;7.67;6.87;;;;;;;4.51;62.76;95842.13;5073740;28;20198;-71
2023/03/06 11:15:22;;;;;;;9.53;8.63;;;;;;;4.45;62.26;95846.25;5025599;28;21147;-72
2023/03/06 11:17:57;;;;;;;8.30;7.50;;;;;;;4.30;62.38;95850.66;5074415;28;20483;-71
2023/03/06 11:20:27;;;;;;;9.03;7.27;;;;;;;4.51;62.76;95849.16;5078063;28;20201;-72
2023/03/06 11:23:12;;;;;;;9.10;8.10;;;;;;;4.51;63.22;95838.66;5070679;28;20326;-73
2023/03/06 11:25:41;;;;;;;8.23;7.40;;;;;;;4.16;62.98;95845.19;5070378;28;20226;-72